Time;durP1;ratioP1;P1;durP2;ratioP2;P2;SDS_P1;SDS_P2;PMS_P1;PMS_P2;Temp;Humidity;BMP_temperature;BMP_pressure;BME280_temperature;BME280_humidity;BME280_pressure;Samples;Min_cycle;Max_cycle;Signal;HPM_P1;HPM_P2
2022/03/03 00:02:09;;;;;;;11.20;5.15;;;2.90;50.50;;;;;;2284062;55;21082;-64
2022/03/03 00:04:35;;;;;;;11.23;5.57;;;2.80;50.90;;;;;;2339592;55;20954;-63
2022/03/03 00:07:05;;;;;;;12.93;5.50;;;2.80;50.30;;;;;;2292268;55;21522;-63
2022/03/03 00:09:32;;;;;;;12.23;5.87;;;2.80;50.40;;;;;;2269109;55;21561;-63
2022/03/03 00:11:59;;;;;;;12.93;5.53;;;2.80;50.50;;;;;;2267006;56;21021;-64
2022/03/03 00:14:25;;;;;;;11.55;5.07;;;2.80;50.60;;;;;;2396497;55;20989;-64
2022/03/03 00:16:51;;;;;;;12.13;5.70;;;2.80;50.60;;;;;;2285529;55;21010;-63
2022/03/03 00:19:18;;;;;;;13.32;5.68;;;2.70;50.60;;;;;;2284896;55;21028;-64
2022/03/03 00:21:44;;;;;;;13.00;6.25;;;2.70;50.60;;;;;;2284783;54;20974;-63
2022/03/03 00:24:11;;;;;;;15.02;6.65;;;2.70;50.60;;;;;;2286500;55;21428;-64
2022/03/03 00:26:37;;;;;;;13.00;5.85;;;2.70;50.60;;;;;;2361640;55;21824;-65
2022/03/03 00:29:03;;;;;;;13.27;6.00;;;2.70;50.60;;;;;;2289377;55;20978;-64
2022/03/03 00:31:46;;;;;;;14.27;6.37;;;2.70;50.60;;;;;;2289567;55;20938;-64
2022/03/03 00:34:13;;;;;;;14.80;6.10;;;2.70;50.70;;;;;;2288852;55;20991;-64
2022/03/03 00:36:42;;;;;;;14.90;7.18;;;2.60;50.50;;;;;;2289602;55;20954;-64
2022/03/03 00:39:08;;;;;;;11.40;5.35;;;2.60;50.50;;;;;;2463886;55;20941;-63
2022/03/03 00:41:34;;;;;;;14.73;6.35;;;2.60;50.60;;;;;;2283572;55;21096;-63
2022/03/03 00:44:07;;;;;;;13.38;5.43;;;2.60;50.60;;;;;;2289385;55;21054;-63
2022/03/03 00:46:33;;;;;;;12.57;5.93;;;2.50;50.60;;;;;;2267352;56;21428;-63
2022/03/03 00:49:01;;;;;;;12.43;5.87;;;2.50;50.50;;;;;;2289476;55;20990;-64
2022/03/03 00:51:28;;;;;;;11.32;5.62;;;2.50;50.50;;;;;;2291096;55;21025;-63
2022/03/03 00:53:55;;;;;;;15.20;6.43;;;2.50;50.50;;;;;;2280835;54;21100;-63
2022/03/03 00:56:21;;;;;;;13.48;5.95;;;2.40;50.50;;;;;;2288315;55;20994;-63
2022/03/03 00:58:50;;;;;;;15.40;7.30;;;2.40;50.60;;;;;;2286587;55;21042;-64
2022/03/03 01:01:22;;;;;;;14.27;7.07;;;2.40;50.60;;;;;;2282957;55;20960;-64
2022/03/03 01:03:49;;;;;;;15.75;7.28;;;2.40;50.70;;;;;;2286218;55;21471;-65
2022/03/03 01:06:15;;;;;;;18.92;8.27;;;2.30;50.60;;;;;;2288607;55;21328;-63
2022/03/03 01:08:43;;;;;;;15.25;7.80;;;2.30;50.70;;;;;;2285077;55;21045;-63
2022/03/03 01:11:18;;;;;;;17.08;7.62;;;2.30;50.70;;;;;;2289082;55;20938;-64
2022/03/03 01:13:45;;;;;;;14.02;6.90;;;2.30;50.80;;;;;;2286132;55;20966;-64
2022/03/03 01:16:12;;;;;;;16.23;6.95;;;2.30;50.80;;;;;;2292335;55;21031;-63
2022/03/03 01:18:38;;;;;;;12.37;6.12;;;2.20;50.80;;;;;;2381805;55;21013;-63
2022/03/03 01:21:05;;;;;;;15.68;6.62;;;2.20;50.80;;;;;;2286200;55;21771;-64
2022/03/03 01:23:31;;;;;;;12.32;6.20;;;2.20;50.80;;;;;;2523786;55;20974;-64
2022/03/03 01:25:58;;;;;;;14.82;6.85;;;2.20;50.90;;;;;;2348680;55;21350;-64
2022/03/03 01:28:40;;;;;;;13.40;5.90;;;2.20;50.90;;;;;;2353358;55;21072;-63
2022/03/03 01:31:06;;;;;;;13.10;6.27;;;2.20;51.00;;;;;;2289526;55;20986;-63
2022/03/03 01:33:33;;;;;;;13.32;5.90;;;2.20;50.90;;;;;;2315990;55;21120;-63
2022/03/03 01:35:59;;;;;;;11.45;5.45;;;2.10;50.90;;;;;;2286430;55;20978;-64
2022/03/03 01:38:25;;;;;;;15.07;6.47;;;2.10;50.90;;;;;;2471748;55;21041;-65
2022/03/03 01:40:51;;;;;;;13.15;6.12;;;2.10;51.00;;;;;;2289183;55;21014;-63
2022/03/03 01:43:18;;;;;;;13.00;6.20;;;2.00;50.90;;;;;;2467380;55;20954;-64
2022/03/03 01:45:45;;;;;;;13.65;6.47;;;2.10;51.00;;;;;;2288958;55;20963;-64
2022/03/03 01:48:11;;;;;;;14.80;5.93;;;2.10;51.00;;;;;;2289322;55;21030;-62
2022/03/03 01:50:37;;;;;;;16.58;7.28;;;2.10;51.10;;;;;;2289236;55;21499;-63
2022/03/03 01:53:08;;;;;;;13.13;6.03;;;1.90;50.90;;;;;;2393199;55;20996;-64
2022/03/03 01:55:37;;;;;;;11.68;5.93;;;2.00;51.10;;;;;;2289813;55;20946;-64
2022/03/03 01:58:05;;;;;;;15.15;7.32;;;2.00;51.00;;;;;;2316202;55;20965;-63
2022/03/03 02:00:31;;;;;;;12.82;6.22;;;2.00;51.10;;;;;;2289669;55;20966;-64
2022/03/03 02:03:00;;;;;;;12.37;5.80;;;2.00;51.10;;;;;;2284480;55;21426;-63
2022/03/03 02:05:27;;;;;;;14.60;5.82;;;2.00;51.10;;;;;;2284126;55;21072;-63
2022/03/03 02:07:55;;;;;;;11.18;5.93;;;1.90;51.10;;;;;;2284555;55;21073;-63
2022/03/03 02:10:21;;;;;;;14.40;6.03;;;1.90;51.10;;;;;;2417964;55;20942;-63
2022/03/03 02:12:49;;;;;;;11.98;5.57;;;1.90;51.10;;;;;;2519648;55;21753;-63
2022/03/03 02:15:19;;;;;;;12.15;5.95;;;1.90;51.10;;;;;;2288696;55;20938;-64
2022/03/03 02:17:46;;;;;;;15.10;6.50;;;1.90;51.10;;;;;;2269265;56;20978;-63
2022/03/03 02:20:24;;;;;;;14.68;6.25;;;1.90;51.10;;;;;;2286069;55;20973;-63
2022/03/03 02:22:53;;;;;;;14.13;6.10;;;1.80;51.20;;;;;;2517340;55;21050;-63
2022/03/03 02:25:23;;;;;;;15.25;6.40;;;1.80;51.20;;;;;;2288927;55;20994;-63
2022/03/03 02:27:50;;;;;;;14.48;6.78;;;1.80;51.20;;;;;;2523615;55;21041;-64
2022/03/03 02:30:17;;;;;;;15.40;6.60;;;1.80;51.20;;;;;;2289037;55;20962;-66
2022/03/03 02:32:44;;;;;;;13.52;6.62;;;1.80;51.30;;;;;;2524184;55;21010;-63
2022/03/03 02:35:11;;;;;;;13.50;6.65;;;1.80;51.30;;;;;;2289760;55;20994;-63
2022/03/03 02:37:39;;;;;;;13.32;6.40;;;1.80;51.40;;;;;;2393197;55;21001;-63
2022/03/03 02:40:07;;;;;;;12.30;5.82;;;1.70;51.40;;;;;;2288988;55;20949;-63
2022/03/03 02:42:34;;;;;;;12.80;6.20;;;1.70;51.30;;;;;;2326941;55;21750;-63
2022/03/03 02:45:02;;;;;;;12.10;6.00;;;1.70;51.40;;;;;;2289640;55;21045;-63
2022/03/03 02:47:29;;;;;;;12.57;6.07;;;1.70;51.40;;;;;;2304784;55;21037;-64
2022/03/03 02:49:57;;;;;;;13.05;5.70;;;1.70;51.50;;;;;;2289469;55;20962;-64
2022/03/03 02:52:24;;;;;;;11.98;5.30;;;1.70;51.50;;;;;;2367182;55;21002;-63
2022/03/03 02:54:50;;;;;;;12.18;5.85;;;1.70;51.50;;;;;;2289373;55;21673;-64
2022/03/03 03:00:04;;;;;;;13.00;5.70;;;1.70;51.50;;;;;;2448814;55;20990;-64
2022/03/03 03:02:30;;;;;;;10.25;4.82;;;1.70;51.50;;;;;;2522354;55;20978;-64
2022/03/03 03:04:57;;;;;;;12.13;5.32;;;1.70;51.50;;;;;;2280357;55;20957;-63
2022/03/03 03:07:24;;;;;;;10.93;5.00;;;1.60;51.40;;;;;;2523124;55;21057;-63
2022/03/03 03:09:50;;;;;;;12.37;5.80;;;1.60;51.40;;;;;;2289341;55;20938;-64
2022/03/03 03:12:20;;;;;;;11.00;5.47;;;1.60;51.40;;;;;;2322681;55;20966;-65
2022/03/03 03:14:46;;;;;;;13.20;5.55;;;1.60;51.50;;;;;;2267275;56;20930;-64
2022/03/03 03:17:12;;;;;;;12.02;5.75;;;1.60;51.50;;;;;;2523910;55;21415;-64
2022/03/03 03:19:39;;;;;;;11.25;5.40;;;1.60;52.00;;;;;;2286678;55;20989;-63
2022/03/03 03:22:07;;;;;;;13.35;6.18;;;1.60;51.50;;;;;;2336373;55;21538;-63
2022/03/03 03:24:33;;;;;;;11.98;5.37;;;1.60;51.50;;;;;;2289698;55;21049;-63
2022/03/03 03:26:59;;;;;;;13.35;6.32;;;1.60;51.50;;;;;;2524145;55;21035;-64
2022/03/03 03:29:26;;;;;;;15.07;6.72;;;1.50;51.40;;;;;;2286467;55;20963;-64
2022/03/03 03:31:53;;;;;;;12.82;5.70;;;1.60;51.50;;;;;;2320476;55;2296156;-64
2022/03/03 03:34:23;;;;;;;12.57;6.12;;;1.50;51.50;;;;;;2289155;55;21022;-64
2022/03/03 03:36:52;;;;;;;;;;;1.60;51.60;;;;;;2382987;55;21311;-65
2022/03/03 03:39:45;;;;;;;11.98;5.43;;;1.50;51.60;;;;;;2289815;55;20088;-64
2022/03/03 03:42:15;;;;;;;13.25;5.82;;;1.50;51.50;;;;;;2493046;55;20934;-64
2022/03/03 03:44:41;;;;;;;11.23;5.53;;;1.50;51.50;;;;;;2286738;55;21098;-64
2022/03/03 03:47:17;;;;;;;12.93;6.43;;;1.50;51.60;;;;;;2289666;55;21722;-63
2022/03/03 03:49:43;;;;;;;10.80;4.87;;;1.50;51.70;;;;;;2289497;55;21011;-63
2022/03/03 03:52:11;;;;;;;13.50;6.37;;;1.50;51.70;;;;;;2352413;55;21534;-63
2022/03/03 03:54:37;;;;;;;12.85;5.70;;;1.50;51.60;;;;;;2278868;55;20972;-63
2022/03/03 03:57:04;;;;;;;12.80;5.72;;;1.40;51.60;;;;;;2317477;55;21499;-63
2022/03/03 03:59:33;;;;;;;11.82;5.95;;;1.40;51.60;;;;;;2283146;55;20929;-64
2022/03/03 04:02:00;;;;;;;14.18;6.32;;;1.40;51.60;;;;;;2395500;55;20946;-63
2022/03/03 04:04:26;;;;;;;14.98;6.62;;;1.40;51.70;;;;;;2289986;55;21711;-63
2022/03/03 04:06:53;;;;;;;12.68;6.12;;;1.40;51.70;;;;;;2300399;55;21935;-63
2022/03/03 04:09:31;;;;;;;13.82;6.90;;;1.40;51.70;;;;;;2299844;55;21527;-63
2022/03/03 04:11:59;;;;;;;12.18;5.75;;;1.40;51.80;;;;;;2267330;56;21034;-65
2022/03/03 04:14:26;;;;;;;14.55;7.05;;;1.40;51.70;;;;;;2289723;55;20949;-64
2022/03/03 04:16:53;;;;;;;15.65;7.43;;;1.40;51.70;;;;;;2347370;55;21046;-63
2022/03/03 04:19:22;;;;;;;16.23;6.35;;;1.30;51.60;;;;;;2289340;55;20985;-63
2022/03/03 04:21:49;;;;;;;14.25;7.03;;;1.30;51.70;;;;;;2332248;55;21049;-63
2022/03/03 04:27:56;;;;;;;13.73;6.53;;;1.30;51.80;;;;;;2290328;55;20943;-63
2022/03/03 04:30:25;;;;;;;12.85;6.35;;;1.30;51.60;;;;;;2289335;55;20969;-64
2022/03/03 04:32:52;;;;;;;14.20;7.35;;;1.30;51.70;;;;;;2385403;55;20930;-64
2022/03/03 04:35:18;;;;;;;20.52;9.55;;;1.20;51.60;;;;;;2284745;55;21467;-64
2022/03/03 04:37:44;;;;;;;21.05;9.65;;;1.20;51.60;;;;;;2347918;55;21006;-64
2022/03/03 04:40:16;;;;;;;19.45;9.30;;;1.20;51.60;;;;;;2292011;55;21138;-64
2022/03/03 04:42:46;;;;;;;17.75;8.73;;;1.20;51.70;;;;;;2276116;55;21017;-63
2022/03/03 04:45:33;;;;;;;18.15;8.80;;;1.20;51.70;;;;;;2511653;55;20958;-63
2022/03/03 04:48:00;;;;;;;18.15;8.55;;;1.20;51.90;;;;;;2288031;55;20946;-65
2022/03/03 04:51:21;;;;;;;15.70;7.37;;;1.20;51.80;;;;;;2286888;55;21299;-63
2022/03/03 04:53:56;;;;;;;16.50;6.97;;;1.20;51.90;;;;;;2289244;55;20978;-63
2022/03/03 04:56:23;;;;;;;17.87;8.73;;;1.20;51.80;;;;;;2286980;55;21056;-63
2022/03/03 04:58:50;;;;;;;14.93;6.93;;;1.10;51.80;;;;;;2286009;55;21063;-64
2022/03/03 05:01:47;;;;;;;13.62;7.03;;;1.10;51.80;;;;;;2289559;55;20982;-65
2022/03/03 05:04:13;;;;;;;13.48;6.45;;;1.10;51.90;;;;;;2284091;55;20945;-64
2022/03/03 05:06:42;;;;;;;18.48;8.15;;;1.10;51.80;;;;;;2284530;55;21495;-63
2022/03/03 05:09:11;;;;;;;12.82;6.80;;;1.10;51.80;;;;;;2287549;55;20953;-64
2022/03/03 05:11:37;;;;;;;13.38;7.15;;;1.10;51.80;;;;;;2289921;55;20962;-63
2022/03/03 05:14:03;;;;;;;18.52;8.52;;;1.10;51.80;;;;;;2284413;55;20966;-63
2022/03/03 05:16:30;;;;;;;18.37;8.55;;;1.10;51.90;;;;;;2286408;55;20958;-63
2022/03/03 05:18:56;;;;;;;16.27;8.18;;;1.10;51.90;;;;;;2370762;55;20929;-64
2022/03/03 05:24:53;;;;;;;15.75;7.15;;;1.00;51.90;;;;;;2375064;55;20990;-63
2022/03/03 05:27:20;;;;;;;16.92;8.23;;;1.00;51.80;;;;;;2302715;54;21060;-63
2022/03/03 05:33:26;;;;;;;15.98;6.87;;;1.00;51.90;;;;;;2289916;55;20978;-63
2022/03/03 05:36:41;;;;;;;17.52;7.72;;;1.00;51.80;;;;;;2289754;55;21025;-64
2022/03/03 05:39:08;;;;;;;15.43;7.50;;;1.00;51.90;;;;;;2288971;55;20985;-63
2022/03/03 05:41:46;;;;;;;14.63;7.22;;;0.90;51.80;;;;;;2289082;55;21451;-63
2022/03/03 05:44:41;;;;;;;17.00;7.55;;;0.90;51.90;;;;;;2281056;55;21863;-65
2022/03/03 05:47:17;;;;;;;16.48;6.93;;;0.90;51.90;;;;;;2410544;55;20967;-62
2022/03/03 05:49:46;;;;;;;17.08;8.30;;;0.90;51.90;;;;;;2288045;55;20934;-63
2022/03/03 05:52:19;;;;;;;12.82;6.50;;;0.90;51.90;;;;;;2289828;55;21022;-64
2022/03/03 05:54:45;;;;;;;14.80;7.82;;;0.90;52.00;;;;;;2285500;55;21342;-63
2022/03/03 05:57:34;;;;;;;18.05;7.57;;;0.90;51.90;;;;;;2289566;54;21013;-63
2022/03/03 06:00:09;;;;;;;22.10;8.73;;;0.90;52.10;;;;;;2287330;55;21056;-64
2022/03/03 06:02:50;;;;;;;23.77;9.68;;;0.70;51.90;;;;;;2289286;55;20998;-62
2022/03/03 06:05:19;;;;;;;18.95;8.88;;;0.80;52.00;;;;;;2286130;55;21025;-64
2022/03/03 06:07:45;;;;;;;18.85;8.50;;;0.80;51.90;;;;;;2516569;55;21386;-63
2022/03/03 06:10:17;;;;;;;16.90;8.35;;;0.80;51.90;;;;;;2285745;55;21018;-64
2022/03/03 06:12:51;;;;;;;17.70;8.35;;;0.80;52.00;;;;;;2286467;55;21744;-63
2022/03/03 06:15:18;;;;;;;15.98;7.68;;;0.80;52.00;;;;;;2291214;55;21021;-63
2022/03/03 06:17:44;;;;;;;17.40;8.40;;;0.80;52.00;;;;;;2289255;54;20954;-64
2022/03/03 06:20:14;;;;;;;16.17;8.02;;;0.80;52.00;;;;;;2289852;55;21361;-64
2022/03/03 06:22:41;;;;;;;18.15;7.85;;;0.80;52.10;;;;;;2267608;55;21270;-63
2022/03/03 06:25:09;;;;;;;19.02;8.85;;;0.70;52.00;;;;;;2267697;56;21022;-64
2022/03/03 06:27:35;;;;;;;17.85;8.07;;;0.70;52.10;;;;;;2289030;55;21025;-63
2022/03/03 06:30:02;;;;;;;16.25;7.30;;;0.80;52.20;;;;;;2287797;55;20938;-63
2022/03/03 06:32:29;;;;;;;16.20;7.68;;;0.70;52.20;;;;;;2293540;55;22001;-63
2022/03/03 06:34:55;;;;;;;17.40;8.57;;;0.80;52.20;;;;;;2289616;55;20977;-63
2022/03/03 06:37:22;;;;;;;15.25;7.53;;;0.80;52.30;;;;;;2289818;54;21029;-63
2022/03/03 06:39:50;;;;;;;16.08;7.72;;;0.80;53.00;;;;;;2288294;55;20945;-66
2022/03/03 06:42:19;;;;;;;15.73;8.57;;;0.80;52.40;;;;;;2288255;54;21010;-63
2022/03/03 06:44:45;;;;;;;19.83;8.77;;;0.80;52.50;;;;;;2290490;55;20970;-63
2022/03/03 06:47:11;;;;;;;18.80;8.77;;;0.80;52.50;;;;;;2288809;55;21070;-64
2022/03/03 06:49:38;;;;;;;16.83;8.63;;;0.80;52.50;;;;;;2288777;55;20950;-63
2022/03/03 06:52:06;;;;;;;16.45;7.20;;;0.80;52.60;;;;;;2279809;55;21010;-64
2022/03/03 06:54:32;;;;;;;20.58;9.10;;;0.90;52.70;;;;;;2289469;55;21536;-64
2022/03/03 06:56:58;;;;;;;19.87;8.90;;;0.90;52.80;;;;;;2290442;55;21073;-64
2022/03/03 06:59:27;;;;;;;20.02;9.20;;;0.90;52.80;;;;;;2289483;55;21042;-63
2022/03/03 07:01:54;;;;;;;16.73;8.02;;;0.90;52.90;;;;;;2289772;55;21407;-64
2022/03/03 07:04:21;;;;;;;16.17;8.02;;;1.00;53.00;;;;;;2409785;54;20990;-63
2022/03/03 07:06:48;;;;;;;17.12;7.35;;;1.00;53.00;;;;;;2490486;55;21009;-63
2022/03/03 07:09:35;;;;;;;18.90;8.13;;;1.00;53.10;;;;;;2287600;55;21031;-64
2022/03/03 07:12:05;;;;;;;17.70;8.65;;;1.10;53.30;;;;;;2288138;55;20982;-64
2022/03/03 07:14:32;;;;;;;17.75;9.10;;;1.10;53.30;;;;;;2517986;55;21414;-64
2022/03/03 07:17:02;;;;;;;20.65;9.32;;;1.20;53.40;;;;;;2288960;55;20970;-64
2022/03/03 07:19:44;;;;;;;17.60;8.40;;;1.20;53.50;;;;;;2289007;55;20962;-64
2022/03/03 07:22:47;;;;;;;22.77;9.88;;;1.30;53.60;;;;;;2323873;55;21089;-65
2022/03/03 07:25:23;;;;;;;22.00;9.90;;;1.40;53.80;;;;;;2285133;55;20954;-65
2022/03/03 07:27:49;;;;;;;23.30;11.05;;;1.40;53.70;;;;;;2289293;55;20969;-64
2022/03/03 07:30:16;;;;;;;24.65;11.00;;;1.50;53.70;;;;;;2283357;55;21002;-64
2022/03/03 07:32:54;;;;;;;21.25;9.98;;;1.60;53.90;;;;;;2289527;55;20965;-66
2022/03/03 07:35:21;;;;;;;18.23;9.55;;;1.60;54.00;;;;;;2519663;54;20954;-64
2022/03/03 07:38:05;;;;;;;19.83;9.75;;;1.70;53.90;;;;;;2289034;55;21798;-64
2022/03/03 07:40:32;;;;;;;20.65;9.80;;;1.80;54.10;;;;;;2282640;54;20973;-64
2022/03/03 07:42:58;;;;;;;21.87;10.40;;;1.90;54.20;;;;;;2280862;55;20974;-67
2022/03/03 07:45:26;;;;;;;19.48;9.75;;;1.90;54.20;;;;;;2289058;55;21395;-65
2022/03/03 07:47:56;;;;;;;16.80;8.38;;;2.00;54.40;;;;;;2288093;55;21659;-63
2022/03/03 07:50:41;;;;;;;17.73;9.15;;;2.10;54.60;;;;;;2289830;55;20946;-64
2022/03/03 07:53:10;;;;;;;19.45;9.50;;;2.20;54.80;;;;;;2291192;55;21001;-63
2022/03/03 07:55:42;;;;;;;22.33;9.52;;;2.30;54.80;;;;;;2289232;54;20982;-64
2022/03/03 07:58:19;;;;;;;16.60;8.55;;;2.40;55.00;;;;;;2288658;55;21047;-64
2022/03/03 08:00:50;;;;;;;22.80;10.50;;;2.50;55.20;;;;;;2272386;55;21535;-64
2022/03/03 08:03:20;;;;;;;21.45;10.68;;;2.60;55.20;;;;;;2280565;55;21014;-64
2022/03/03 08:05:50;;;;;;;20.60;10.50;;;2.70;55.30;;;;;;2289645;55;21006;-63
2022/03/03 08:08:35;;;;;;;20.52;9.77;;;2.80;55.30;;;;;;2357165;55;20974;-63
2022/03/03 08:11:04;;;;;;;19.90;9.50;;;2.90;55.30;;;;;;2238211;56;21081;-62
2022/03/03 08:13:30;;;;;;;18.27;10.05;;;3.00;55.30;;;;;;2289578;55;20998;-64
2022/03/03 08:16:26;;;;;;;19.50;10.02;;;3.10;55.30;;;;;;2282524;55;20938;-64
2022/03/03 08:18:55;;;;;;;17.87;9.43;;;3.30;55.50;;;;;;2288748;55;20886;-64
2022/03/03 08:21:55;;;;;;;21.48;10.25;;;3.40;55.40;;;;;;2286351;55;21013;-64
2022/03/03 08:24:22;;;;;;;19.73;9.57;;;3.50;55.60;;;;;;2289894;55;21495;-63
2022/03/03 08:26:49;;;;;;;18.42;9.98;;;3.60;55.40;;;;;;2289702;55;20970;-63
2022/03/03 08:29:15;;;;;;;17.42;9.32;;;3.70;56.10;;;;;;2290651;55;21392;-64
2022/03/03 08:31:43;;;;;;;17.17;9.50;;;3.80;55.50;;;;;;2289015;55;21423;-63
2022/03/03 08:34:28;;;;;;;17.65;9.65;;;4.00;55.70;;;;;;2291084;55;20939;-62
2022/03/03 08:37:00;;;;;;;20.80;11.23;;;4.10;55.80;;;;;;2289556;54;21054;-63
2022/03/03 08:39:29;;;;;;;18.87;11.15;;;4.30;56.30;;;;;;2522653;55;21037;-64
2022/03/03 08:41:57;;;;;;;22.33;10.77;;;4.50;57.20;;;;;;2353788;55;20982;-64
2022/03/03 08:44:35;;;;;;;17.80;10.25;;;4.80;58.30;;;;;;2289751;54;21018;-64
2022/03/03 08:47:03;;;;;;;16.12;9.63;;;5.30;59.60;;;;;;2284093;55;20997;-64
2022/03/03 08:49:33;;;;;;;15.95;9.70;;;5.90;60.70;;;;;;2285754;55;20966;-64
2022/03/03 08:52:08;;;;;;;16.40;9.90;;;6.40;61.30;;;;;;2285505;55;21821;-65
2022/03/03 08:54:34;;;;;;;15.77;9.38;;;7.00;61.90;;;;;;2284386;55;20970;-64
2022/03/03 08:57:04;;;;;;;14.18;9.02;;;7.60;62.30;;;;;;2297171;55;21051;-63
2022/03/03 08:59:30;;;;;;;15.65;9.73;;;8.20;62.00;;;;;;2283116;55;20942;-66
2022/03/03 09:01:57;;;;;;;14.57;9.50;;;8.70;61.20;;;;;;2290045;55;21043;-65
2022/03/03 09:04:25;;;;;;;17.00;10.10;;;9.20;60.20;;;;;;2289304;55;21028;-64
2022/03/03 09:06:51;;;;;;;14.60;9.70;;;9.50;59.20;;;;;;2392811;54;21001;-66
2022/03/03 09:09:17;;;;;;;14.20;9.70;;;9.80;58.50;;;;;;2286504;55;20974;-67
2022/03/03 09:11:43;;;;;;;15.50;9.75;;;10.10;57.00;;;;;;2523651;55;21073;-65
2022/03/03 09:14:11;;;;;;;15.75;9.50;;;10.30;56.30;;;;;;2282915;55;20970;-66
2022/03/03 09:16:37;;;;;;;16.55;9.77;;;10.50;56.30;;;;;;2523887;55;20937;-65
2022/03/03 09:19:03;;;;;;;13.55;8.43;;;10.60;55.00;;;;;;2291088;55;21451;-66
2022/03/03 09:21:32;;;;;;;14.73;9.10;;;10.60;54.40;;;;;;2289553;55;21323;-66
2022/03/03 09:23:59;;;;;;;13.45;8.45;;;10.70;54.00;;;;;;2288115;55;21057;-66
2022/03/03 09:26:27;;;;;;;15.38;9.20;;;10.70;53.70;;;;;;2290359;55;20943;-67
2022/03/03 09:28:54;;;;;;;12.75;8.10;;;10.70;53.70;;;;;;2277441;55;20969;-65
2022/03/03 09:31:21;;;;;;;13.05;7.87;;;10.80;53.90;;;;;;2287361;55;20963;-64
2022/03/03 09:33:47;;;;;;;14.98;9.75;;;10.90;54.10;;;;;;2293304;55;20948;-65
2022/03/03 09:36:14;;;;;;;15.43;9.48;;;11.00;54.40;;;;;;2353296;55;21285;-65
2022/03/03 09:38:40;;;;;;;14.55;9.13;;;11.20;54.70;;;;;;2295272;55;20974;-65
2022/03/03 09:44:48;;;;;;;14.30;8.88;;;11.90;54.50;;;;;;2289425;55;21596;-65
2022/03/03 09:47:16;;;;;;;16.12;9.80;;;12.30;55.40;;;;;;2370950;55;21040;-65
2022/03/03 09:49:42;;;;;;;15.32;9.88;;;12.70;55.30;;;;;;2274266;55;21679;-65
2022/03/03 09:52:15;;;;;;;14.20;9.75;;;13.00;55.30;;;;;;2280648;56;20932;-65
2022/03/03 09:54:42;;;;;;;13.40;8.73;;;13.30;54.60;;;;;;2302368;55;20999;-65
2022/03/03 09:57:09;;;;;;;14.35;9.57;;;13.60;54.90;;;;;;2433040;55;21052;-65
2022/03/03 09:59:35;;;;;;;14.80;9.93;;;13.80;54.70;;;;;;2275454;55;21010;-64
2022/03/03 10:02:04;;;;;;;14.87;9.65;;;14.00;54.30;;;;;;2282363;55;21396;-65
2022/03/03 10:04:30;;;;;;;14.30;9.25;;;14.20;54.10;;;;;;2276599;55;20954;-67
2022/03/03 10:07:01;;;;;;;12.68;8.80;;;14.40;54.00;;;;;;2401076;55;20940;-66
2022/03/03 10:09:27;;;;;;;14.95;9.73;;;14.60;54.00;;;;;;2280418;55;21802;-67
2022/03/03 10:12:06;;;;;;;15.73;9.77;;;14.70;53.80;;;;;;2273268;55;20985;-67
2022/03/03 10:14:35;;;;;;;14.38;9.73;;;14.90;53.00;;;;;;2278211;55;20936;-64
2022/03/03 10:17:03;;;;;;;13.73;9.43;;;15.10;53.90;;;;;;2510545;55;20995;-66
2022/03/03 10:19:54;;;;;;;14.73;9.82;;;15.30;54.10;;;;;;2275480;56;21854;-66
2022/03/03 10:22:37;;;;;;;14.63;9.45;;;15.60;53.50;;;;;;2260487;55;21053;-65
2022/03/03 10:25:06;;;;;;;13.20;8.75;;;15.80;53.60;;;;;;2279761;55;20987;-66
2022/03/03 10:27:33;;;;;;;13.30;9.32;;;16.00;53.90;;;;;;2348113;55;21028;-65
2022/03/03 10:30:01;;;;;;;13.07;9.27;;;16.30;54.00;;;;;;2268717;56;20963;-65
2022/03/03 10:32:28;;;;;;;13.57;9.80;;;16.50;54.00;;;;;;2398257;55;20954;-65
2022/03/03 10:35:19;;;;;;;13.90;9.70;;;16.70;54.00;;;;;;2273512;55;20915;-67
2022/03/03 10:37:46;;;;;;;14.32;9.43;;;17.00;53.80;;;;;;2388219;55;21028;-67
2022/03/03 10:40:15;;;;;;;11.77;8.32;;;17.30;54.50;;;;;;2280938;56;20959;-65
2022/03/03 10:42:44;;;;;;;13.73;9.25;;;17.50;54.50;;;;;;2283204;55;21856;-65
2022/03/03 10:45:13;;;;;;;13.52;8.52;;;17.80;54.10;;;;;;2280763;56;20916;-65
2022/03/03 10:47:44;;;;;;;13.75;9.07;;;18.10;53.70;;;;;;2371843;55;21405;-66
2022/03/03 10:50:10;;;;;;;14.48;8.95;;;18.30;52.80;;;;;;2281081;55;20935;-66
2022/03/03 10:52:40;;;;;;;13.88;10.27;;;18.40;52.50;;;;;;2463268;55;21061;-66
2022/03/03 10:55:17;;;;;;;13.30;9.30;;;18.50;51.70;;;;;;2280538;56;20928;-67
2022/03/03 10:57:58;;;;;;;14.45;10.60;;;18.40;50.00;;;;;;2279199;55;20959;-68
2022/03/03 11:00:28;;;;;;;13.90;10.18;;;18.40;49.30;;;;;;2274565;56;21030;-66
2022/03/03 11:03:22;;;;;;;13.07;9.38;;;18.30;49.10;;;;;;2393366;55;21818;-68
2022/03/03 11:06:26;;;;;;;14.45;9.50;;;18.10;47.80;;;;;;2381207;55;20943;-69
2022/03/03 11:08:54;;;;;;;12.65;8.75;;;18.00;47.90;;;;;;2512960;55;20915;-66
2022/03/03 11:12:06;;;;;;;14.13;9.00;;;17.90;48.60;;;;;;2271271;56;21955;-66
2022/03/03 11:14:33;;;;;;;12.52;8.68;;;17.80;47.40;;;;;;2279934;55;21421;-68
2022/03/03 11:17:14;;;;;;;13.07;9.13;;;17.80;48.10;;;;;;2279899;55;20991;-68
2022/03/03 11:19:43;;;;;;;15.98;9.15;;;17.70;47.40;;;;;;2280956;56;20983;-66
2022/03/03 11:22:09;;;;;;;13.65;8.77;;;17.50;47.10;;;;;;2279370;55;21761;-67
2022/03/03 11:24:39;;;;;;;15.02;9.10;;;17.30;46.80;;;;;;2510813;55;20970;-64
2022/03/03 11:27:14;;;;;;;12.32;8.40;;;17.20;46.70;;;;;;2264853;55;21062;-65
2022/03/03 11:29:40;;;;;;;13.48;9.10;;;17.10;46.40;;;;;;2277357;55;20962;-66
2022/03/03 11:32:16;;;;;;;15.27;9.63;;;17.00;47.00;;;;;;2269890;55;20934;-67
2022/03/03 11:35:29;;;;;;;13.20;9.10;;;17.00;46.90;;;;;;2270303;56;21034;-65
2022/03/03 11:37:55;;;;;;;13.55;9.38;;;17.10;47.00;;;;;;2283790;55;21536;-65
2022/03/03 11:40:21;;;;;;;14.10;9.02;;;17.10;47.90;;;;;;2284186;55;20950;-66
2022/03/03 11:42:49;;;;;;;15.45;8.93;;;17.20;47.70;;;;;;2283872;55;21262;-65
2022/03/03 11:45:21;;;;;;;13.13;9.25;;;17.20;47.30;;;;;;2327605;55;21451;-65
2022/03/03 11:47:48;;;;;;;12.48;8.93;;;17.20;47.20;;;;;;2284245;55;20942;-67
2022/03/03 11:50:25;;;;;;;14.35;9.45;;;17.30;47.40;;;;;;2518448;55;21002;-65
2022/03/03 11:53:15;;;;;;;14.52;9.13;;;17.40;46.90;;;;;;2284151;55;21001;-65
2022/03/03 11:55:58;;;;;;;13.15;8.73;;;17.50;46.60;;;;;;2518713;55;21072;-66
2022/03/03 11:58:29;;;;;;;15.93;9.77;;;17.60;46.80;;;;;;2355782;55;21501;-66
2022/03/03 12:01:14;;;;;;;15.63;10.02;;;17.70;46.90;;;;;;2406232;54;20942;-65
2022/03/03 12:05:36;;;;;;;14.27;9.77;;;17.70;45.70;;;;;;2284424;55;20963;-65
2022/03/03 12:08:48;;;;;;;15.93;9.75;;;17.70;45.60;;;;;;2294178;55;21093;-66
2022/03/03 12:11:15;;;;;;;15.40;9.57;;;17.70;45.60;;;;;;2276795;55;21035;-66
2022/03/03 12:13:49;;;;;;;14.77;9.73;;;17.60;46.00;;;;;;2284645;55;21038;-65
2022/03/03 12:16:33;;;;;;;14.32;9.30;;;17.50;45.20;;;;;;2279290;55;20986;-66
2022/03/03 12:19:10;;;;;;;13.00;8.68;;;17.40;44.70;;;;;;2303782;55;21459;-65
2022/03/03 12:21:57;;;;;;;14.35;9.50;;;17.20;45.00;;;;;;2269519;55;20958;-68
2022/03/03 12:24:28;;;;;;;14.73;9.57;;;17.10;45.40;;;;;;2354266;54;21827;-67
2022/03/03 12:27:01;;;;;;;18.65;10.10;;;17.10;45.70;;;;;;2285499;55;20985;-68
2022/03/03 12:30:04;;;;;;;16.52;9.90;;;17.00;45.60;;;;;;2296233;55;21468;-67
2022/03/03 12:32:58;;;;;;;15.05;9.73;;;16.90;45.70;;;;;;2326099;55;21056;-66
2022/03/03 12:35:29;;;;;;;15.77;9.93;;;16.90;45.50;;;;;;2323602;55;21510;-66
2022/03/03 12:37:58;;;;;;;14.50;9.25;;;16.90;46.00;;;;;;2258379;56;20956;-66
2022/03/03 12:40:28;;;;;;;16.50;10.40;;;16.90;46.10;;;;;;2302671;55;20927;-67
2022/03/03 12:42:54;;;;;;;15.90;9.85;;;16.90;46.10;;;;;;2450813;55;20935;-64
2022/03/03 12:45:21;;;;;;;13.88;9.40;;;17.00;46.10;;;;;;2363003;55;20968;-64
2022/03/03 12:48:06;;;;;;;14.75;9.95;;;17.00;46.00;;;;;;2273123;55;20942;-66
2022/03/03 12:50:33;;;;;;;15.85;10.00;;;17.10;45.10;;;;;;2279918;55;21069;-67
2022/03/03 12:53:10;;;;;;;15.88;10.88;;;17.10;46.10;;;;;;2279935;55;20990;-67
2022/03/03 12:55:47;;;;;;;13.40;9.02;;;17.10;46.10;;;;;;2315570;55;20995;-65
2022/03/03 13:02:05;;;;;;;14.48;9.55;;;17.30;45.50;;;;;;2513318;55;21451;-65
2022/03/03 13:04:43;;;;;;;15.80;10.00;;;17.30;45.50;;;;;;2277021;56;21733;-67
2022/03/03 13:07:17;;;;;;;15.27;10.27;;;17.40;46.50;;;;;;2280809;55;21432;-64
2022/03/03 13:09:55;;;;;;;15.68;9.80;;;17.50;46.10;;;;;;2258949;56;20967;-65
2022/03/03 13:12:21;;;;;;;14.75;10.27;;;17.50;46.00;;;;;;2279150;55;21484;-66
2022/03/03 13:14:59;;;;;;;17.00;10.18;;;17.60;46.40;;;;;;2280207;56;20936;-67
2022/03/03 13:17:25;;;;;;;15.30;10.15;;;17.70;45.80;;;;;;2276859;56;20951;-67
2022/03/03 13:19:52;;;;;;;16.12;10.55;;;17.80;46.40;;;;;;2277330;56;20955;-66
2022/03/03 13:22:18;;;;;;;15.65;9.95;;;17.80;46.10;;;;;;2279657;55;21057;-65
2022/03/03 13:24:44;;;;;;;14.20;9.77;;;17.90;45.70;;;;;;2281553;56;20975;-65
2022/03/03 13:27:12;;;;;;;13.93;9.07;;;17.90;45.40;;;;;;2281678;55;20943;-67